sensor_id;sensor_type;location;lat;lon;timestamp;P1;durP1;ratioP1;P2;durP2;ratioP2
36931;SDS011;22847;42.654;23.370;2023-05-31T00:00:58;8.25;;;5.55;;
36931;SDS011;22847;42.654;23.370;2023-05-31T00:03:23;11.40;;;5.53;;
36931;SDS011;22847;42.654;23.370;2023-05-31T00:05:49;7.50;;;5.43;;
36931;SDS011;22847;42.654;23.370;2023-05-31T00:08:14;8.35;;;5.28;;
36931;SDS011;22847;42.654;23.370;2023-05-31T00:10:39;8.57;;;5.40;;
36931;SDS011;22847;42.654;23.370;2023-05-31T00:13:05;8.70;;;5.60;;
36931;SDS011;22847;42.654;23.370;2023-05-31T00:15:30;9.25;;;5.38;;
36931;SDS011;22847;42.654;23.370;2023-05-31T00:17:56;7.68;;;5.18;;
36931;SDS011;22847;42.654;23.370;2023-05-31T00:20:21;7.20;;;5.55;;
36931;SDS011;22847;42.654;23.370;2023-05-31T00:22:46;7.43;;;5.10;;
36931;SDS011;22847;42.654;23.370;2023-05-31T00:25:12;7.78;;;5.55;;
36931;SDS011;22847;42.654;23.370;2023-05-31T00:27:37;9.25;;;5.90;;
36931;SDS011;22847;42.654;23.370;2023-05-31T00:30:03;9.73;;;5.80;;
36931;SDS011;22847;42.654;23.370;2023-05-31T00:32:29;10.77;;;5.88;;
36931;SDS011;22847;42.654;23.370;2023-05-31T00:34:54;8.93;;;6.10;;
36931;SDS011;22847;42.654;23.370;2023-05-31T00:37:20;10.40;;;6.03;;
36931;SDS011;22847;42.654;23.370;2023-05-31T00:39:45;10.88;;;6.18;;
36931;SDS011;22847;42.654;23.370;2023-05-31T00:42:10;9.60;;;5.60;;
36931;SDS011;22847;42.654;23.370;2023-05-31T00:44:36;12.50;;;5.68;;
36931;SDS011;22847;42.654;23.370;2023-05-31T00:47:01;7.32;;;5.55;;
36931;SDS011;22847;42.654;23.370;2023-05-31T00:49:27;9.73;;;5.60;;
36931;SDS011;22847;42.654;23.370;2023-05-31T00:51:54;9.68;;;5.47;;
36931;SDS011;22847;42.654;23.370;2023-05-31T00:54:20;9.57;;;5.72;;
36931;SDS011;22847;42.654;23.370;2023-05-31T00:56:45;7.35;;;5.50;;
36931;SDS011;22847;42.654;23.370;2023-05-31T00:59:11;8.23;;;5.32;;
36931;SDS011;22847;42.654;23.370;2023-05-31T01:01:37;7.85;;;5.60;;
36931;SDS011;22847;42.654;23.370;2023-05-31T01:04:02;9.40;;;5.53;;
36931;SDS011;22847;42.654;23.370;2023-05-31T01:06:28;7.85;;;5.47;;
36931;SDS011;22847;42.654;23.370;2023-05-31T01:09:01;8.63;;;5.45;;
36931;SDS011;22847;42.654;23.370;2023-05-31T01:16:36;7.22;;;5.28;;
36931;SDS011;22847;42.654;23.370;2023-05-31T01:19:07;5.65;;;4.35;;
36931;SDS011;22847;42.654;23.370;2023-05-31T01:24:43;8.52;;;5.00;;
36931;SDS011;22847;42.654;23.370;2023-05-31T01:27:18;10.32;;;5.05;;
36931;SDS011;22847;42.654;23.370;2023-05-31T01:29:44;9.15;;;4.63;;
36931;SDS011;22847;42.654;23.370;2023-05-31T01:32:11;6.47;;;3.97;;
36931;SDS011;22847;42.654;23.370;2023-05-31T01:34:39;8.38;;;4.15;;
36931;SDS011;22847;42.654;23.370;2023-05-31T01:37:04;5.65;;;4.35;;
36931;SDS011;22847;42.654;23.370;2023-05-31T01:39:30;11.35;;;4.72;;
36931;SDS011;22847;42.654;23.370;2023-05-31T01:41:56;8.48;;;4.63;;
36931;SDS011;22847;42.654;23.370;2023-05-31T01:44:22;10.57;;;4.70;;
36931;SDS011;22847;42.654;23.370;2023-05-31T01:46:48;8.23;;;4.85;;
36931;SDS011;22847;42.654;23.370;2023-05-31T01:49:14;7.80;;;4.10;;
36931;SDS011;22847;42.654;23.370;2023-05-31T01:51:40;6.68;;;4.60;;
36931;SDS011;22847;42.654;23.370;2023-05-31T01:54:06;10.40;;;4.63;;
36931;SDS011;22847;42.654;23.370;2023-05-31T01:56:32;4.80;;;3.80;;
36931;SDS011;22847;42.654;23.370;2023-05-31T01:58:58;7.00;;;4.32;;
36931;SDS011;22847;42.654;23.370;2023-05-31T02:01:25;5.63;;;4.20;;
36931;SDS011;22847;42.654;23.370;2023-05-31T02:03:51;11.82;;;4.45;;
36931;SDS011;22847;42.654;23.370;2023-05-31T02:06:17;8.32;;;4.68;;
36931;SDS011;22847;42.654;23.370;2023-05-31T02:08:42;5.15;;;3.78;;
36931;SDS011;22847;42.654;23.370;2023-05-31T02:11:08;5.35;;;4.25;;
36931;SDS011;22847;42.654;23.370;2023-05-31T02:13:34;8.60;;;3.90;;
36931;SDS011;22847;42.654;23.370;2023-05-31T02:16:00;4.97;;;3.70;;
36931;SDS011;22847;42.654;23.370;2023-05-31T02:18:26;7.93;;;4.13;;
36931;SDS011;22847;42.654;23.370;2023-05-31T02:20:52;9.55;;;3.97;;
36931;SDS011;22847;42.654;23.370;2023-05-31T02:23:19;5.82;;;3.72;;
36931;SDS011;22847;42.654;23.370;2023-05-31T02:25:45;7.35;;;4.47;;
36931;SDS011;22847;42.654;23.370;2023-05-31T02:28:11;6.10;;;3.92;;
36931;SDS011;22847;42.654;23.370;2023-05-31T02:30:37;7.53;;;4.15;;
36931;SDS011;22847;42.654;23.370;2023-05-31T02:33:03;9.43;;;4.05;;
36931;SDS011;22847;42.654;23.370;2023-05-31T02:35:29;6.07;;;4.20;;
36931;SDS011;22847;42.654;23.370;2023-05-31T02:37:55;9.63;;;3.92;;
36931;SDS011;22847;42.654;23.370;2023-05-31T02:40:21;6.25;;;4.10;;
36931;SDS011;22847;42.654;23.370;2023-05-31T02:42:46;8.20;;;4.22;;
36931;SDS011;22847;42.654;23.370;2023-05-31T02:45:12;6.15;;;4.25;;
36931;SDS011;22847;42.654;23.370;2023-05-31T02:47:38;9.07;;;4.20;;
36931;SDS011;22847;42.654;23.370;2023-05-31T02:50:07;11.20;;;3.97;;
36931;SDS011;22847;42.654;23.370;2023-05-31T02:52:34;11.57;;;5.55;;
36931;SDS011;22847;42.654;23.370;2023-05-31T02:55:03;10.05;;;5.60;;
36931;SDS011;22847;42.654;23.370;2023-05-31T02:57:29;10.65;;;6.03;;
36931;SDS011;22847;42.654;23.370;2023-05-31T02:59:56;7.10;;;5.53;;
36931;SDS011;22847;42.654;23.370;2023-05-31T03:02:23;13.20;;;5.63;;
36931;SDS011;22847;42.654;23.370;2023-05-31T03:04:49;5.57;;;4.50;;
36931;SDS011;22847;42.654;23.370;2023-05-31T03:07:15;8.02;;;4.47;;
36931;SDS011;22847;42.654;23.370;2023-05-31T03:09:41;9.18;;;4.38;;
36931;SDS011;22847;42.654;23.370;2023-05-31T03:12:07;9.38;;;4.40;;
36931;SDS011;22847;42.654;23.370;2023-05-31T03:14:33;6.07;;;4.07;;
36931;SDS011;22847;42.654;23.370;2023-05-31T03:16:58;7.60;;;4.80;;
36931;SDS011;22847;42.654;23.370;2023-05-31T03:19:23;7.97;;;4.90;;
36931;SDS011;22847;42.654;23.370;2023-05-31T03:21:49;9.25;;;5.45;;
36931;SDS011;22847;42.654;23.370;2023-05-31T03:24:14;8.55;;;5.35;;
36931;SDS011;22847;42.654;23.370;2023-05-31T03:26:40;10.82;;;5.45;;
36931;SDS011;22847;42.654;23.370;2023-05-31T03:29:05;9.50;;;5.97;;
36931;SDS011;22847;42.654;23.370;2023-05-31T03:31:31;11.25;;;6.50;;
36931;SDS011;22847;42.654;23.370;2023-05-31T03:33:57;9.60;;;6.07;;
36931;SDS011;22847;42.654;23.370;2023-05-31T03:36:23;8.73;;;6.00;;
36931;SDS011;22847;42.654;23.370;2023-05-31T03:38:48;9.75;;;6.22;;
36931;SDS011;22847;42.654;23.370;2023-05-31T03:41:14;11.15;;;6.18;;
36931;SDS011;22847;42.654;23.370;2023-05-31T03:43:39;11.48;;;5.82;;
36931;SDS011;22847;42.654;23.370;2023-05-31T03:46:04;11.23;;;6.43;;
36931;SDS011;22847;42.654;23.370;2023-05-31T03:48:30;10.80;;;5.80;;
36931;SDS011;22847;42.654;23.370;2023-05-31T03:50:56;8.98;;;6.90;;
36931;SDS011;22847;42.654;23.370;2023-05-31T03:53:22;14.95;;;6.05;;
36931;SDS011;22847;42.654;23.370;2023-05-31T03:55:47;9.82;;;5.97;;
36931;SDS011;22847;42.654;23.370;2023-05-31T03:58:13;9.93;;;5.85;;
36931;SDS011;22847;42.654;23.370;2023-05-31T04:00:38;10.38;;;6.53;;
36931;SDS011;22847;42.654;23.370;2023-05-31T04:03:05;14.55;;;6.68;;
36931;SDS011;22847;42.654;23.370;2023-05-31T04:05:31;10.32;;;5.60;;
36931;SDS011;22847;42.654;23.370;2023-05-31T04:07:56;14.38;;;7.35;;
36931;SDS011;22847;42.654;23.370;2023-05-31T04:10:21;12.05;;;6.18;;
36931;SDS011;22847;42.654;23.370;2023-05-31T04:12:47;10.77;;;6.50;;
36931;SDS011;22847;42.654;23.370;2023-05-31T04:15:12;11.52;;;6.15;;
36931;SDS011;22847;42.654;23.370;2023-05-31T04:17:38;12.43;;;7.28;;
36931;SDS011;22847;42.654;23.370;2023-05-31T04:20:03;12.38;;;7.00;;
36931;SDS011;22847;42.654;23.370;2023-05-31T04:22:32;9.68;;;6.13;;
36931;SDS011;22847;42.654;23.370;2023-05-31T04:24:58;14.68;;;6.38;;
36931;SDS011;22847;42.654;23.370;2023-05-31T04:27:24;15.00;;;6.22;;
36931;SDS011;22847;42.654;23.370;2023-05-31T04:29:50;13.35;;;6.43;;
36931;SDS011;22847;42.654;23.370;2023-05-31T04:32:16;13.50;;;9.13;;
36931;SDS011;22847;42.654;23.370;2023-05-31T04:34:41;15.20;;;6.85;;
36931;SDS011;22847;42.654;23.370;2023-05-31T04:37:08;12.55;;;7.15;;
36931;SDS011;22847;42.654;23.370;2023-05-31T04:39:34;19.02;;;6.53;;
36931;SDS011;22847;42.654;23.370;2023-05-31T04:42:01;11.23;;;6.43;;
36931;SDS011;22847;42.654;23.370;2023-05-31T04:44:27;11.52;;;6.32;;
36931;SDS011;22847;42.654;23.370;2023-05-31T04:46:53;12.52;;;6.28;;
36931;SDS011;22847;42.654;23.370;2023-05-31T04:49:18;15.40;;;7.65;;
36931;SDS011;22847;42.654;23.370;2023-05-31T04:51:44;13.95;;;7.32;;
36931;SDS011;22847;42.654;23.370;2023-05-31T04:54:10;20.38;;;7.55;;
36931;SDS011;22847;42.654;23.370;2023-05-31T04:56:35;14.50;;;7.20;;
36931;SDS011;22847;42.654;23.370;2023-05-31T04:59:01;12.75;;;6.90;;
36931;SDS011;22847;42.654;23.370;2023-05-31T05:01:27;11.43;;;6.50;;
36931;SDS011;22847;42.654;23.370;2023-05-31T05:03:52;15.43;;;6.68;;
36931;SDS011;22847;42.654;23.370;2023-05-31T05:06:18;11.25;;;6.47;;
36931;SDS011;22847;42.654;23.370;2023-05-31T05:08:44;8.90;;;6.07;;
36931;SDS011;22847;42.654;23.370;2023-05-31T05:11:10;17.73;;;6.82;;
36931;SDS011;22847;42.654;23.370;2023-05-31T05:13:36;14.98;;;7.53;;
36931;SDS011;22847;42.654;23.370;2023-05-31T05:16:02;16.10;;;7.00;;
36931;SDS011;22847;42.654;23.370;2023-05-31T05:18:30;11.85;;;7.13;;
36931;SDS011;22847;42.654;23.370;2023-05-31T05:20:56;12.40;;;6.70;;
36931;SDS011;22847;42.654;23.370;2023-05-31T05:23:22;13.30;;;6.53;;
36931;SDS011;22847;42.654;23.370;2023-05-31T05:25:47;10.90;;;6.82;;
36931;SDS011;22847;42.654;23.370;2023-05-31T05:28:13;13.65;;;6.78;;
36931;SDS011;22847;42.654;23.370;2023-05-31T05:30:38;12.55;;;6.95;;
36931;SDS011;22847;42.654;23.370;2023-05-31T05:33:04;10.40;;;6.38;;
36931;SDS011;22847;42.654;23.370;2023-05-31T05:35:29;8.00;;;6.47;;
36931;SDS011;22847;42.654;23.370;2023-05-31T05:37:55;12.95;;;7.57;;
36931;SDS011;22847;42.654;23.370;2023-05-31T05:40:22;8.60;;;6.68;;
36931;SDS011;22847;42.654;23.370;2023-05-31T05:42:48;10.82;;;6.72;;
36931;SDS011;22847;42.654;23.370;2023-05-31T05:45:13;12.10;;;6.72;;
36931;SDS011;22847;42.654;23.370;2023-05-31T05:47:39;16.73;;;7.35;;
36931;SDS011;22847;42.654;23.370;2023-05-31T05:50:06;16.70;;;7.20;;
36931;SDS011;22847;42.654;23.370;2023-05-31T05:52:31;14.45;;;7.82;;
36931;SDS011;22847;42.654;23.370;2023-05-31T05:54:57;12.57;;;7.30;;
36931;SDS011;22847;42.654;23.370;2023-05-31T05:57:22;21.52;;;7.82;;
36931;SDS011;22847;42.654;23.370;2023-05-31T05:59:50;13.57;;;7.47;;
36931;SDS011;22847;42.654;23.370;2023-05-31T06:02:15;14.55;;;8.00;;
36931;SDS011;22847;42.654;23.370;2023-05-31T06:04:41;11.32;;;8.20;;
36931;SDS011;22847;42.654;23.370;2023-05-31T06:07:07;13.73;;;8.18;;
36931;SDS011;22847;42.654;23.370;2023-05-31T06:09:32;20.00;;;8.68;;
36931;SDS011;22847;42.654;23.370;2023-05-31T06:11:57;18.20;;;8.50;;
36931;SDS011;22847;42.654;23.370;2023-05-31T06:14:23;14.13;;;7.57;;
36931;SDS011;22847;42.654;23.370;2023-05-31T06:16:49;19.55;;;7.72;;
36931;SDS011;22847;42.654;23.370;2023-05-31T06:19:14;10.85;;;8.10;;
36931;SDS011;22847;42.654;23.370;2023-05-31T06:21:39;13.32;;;7.78;;
36931;SDS011;22847;42.654;23.370;2023-05-31T06:24:05;15.80;;;8.50;;
36931;SDS011;22847;42.654;23.370;2023-05-31T06:26:30;16.05;;;8.23;;
36931;SDS011;22847;42.654;23.370;2023-05-31T06:28:56;18.67;;;8.10;;
36931;SDS011;22847;42.654;23.370;2023-05-31T06:31:25;21.13;;;8.85;;
36931;SDS011;22847;42.654;23.370;2023-05-31T06:33:52;16.13;;;7.82;;
36931;SDS011;22847;42.654;23.370;2023-05-31T06:36:17;14.00;;;7.68;;
36931;SDS011;22847;42.654;23.370;2023-05-31T06:38:43;12.98;;;8.43;;
36931;SDS011;22847;42.654;23.370;2023-05-31T06:41:09;13.20;;;7.70;;
36931;SDS011;22847;42.654;23.370;2023-05-31T06:43:35;16.10;;;6.97;;
36931;SDS011;22847;42.654;23.370;2023-05-31T06:46:00;13.93;;;8.43;;
36931;SDS011;22847;42.654;23.370;2023-05-31T06:48:26;15.00;;;8.10;;
36931;SDS011;22847;42.654;23.370;2023-05-31T06:50:51;22.10;;;8.70;;
36931;SDS011;22847;42.654;23.370;2023-05-31T06:53:16;16.38;;;7.82;;
36931;SDS011;22847;42.654;23.370;2023-05-31T06:55:42;14.57;;;8.20;;
36931;SDS011;22847;42.654;23.370;2023-05-31T06:58:07;21.73;;;7.72;;
36931;SDS011;22847;42.654;23.370;2023-05-31T07:00:33;11.15;;;7.22;;
36931;SDS011;22847;42.654;23.370;2023-05-31T07:02:58;11.75;;;7.35;;
36931;SDS011;22847;42.654;23.370;2023-05-31T07:05:24;10.60;;;6.75;;
36931;SDS011;22847;42.654;23.370;2023-05-31T07:07:49;15.65;;;7.80;;
36931;SDS011;22847;42.654;23.370;2023-05-31T07:10:15;17.33;;;7.35;;
36931;SDS011;22847;42.654;23.370;2023-05-31T07:12:40;14.48;;;7.63;;
36931;SDS011;22847;42.654;23.370;2023-05-31T07:15:06;14.90;;;6.22;;
36931;SDS011;22847;42.654;23.370;2023-05-31T07:17:33;10.20;;;6.88;;
36931;SDS011;22847;42.654;23.370;2023-05-31T07:19:59;15.18;;;7.25;;
36931;SDS011;22847;42.654;23.370;2023-05-31T07:22:24;12.30;;;6.32;;
36931;SDS011;22847;42.654;23.370;2023-05-31T07:24:50;11.80;;;7.13;;
36931;SDS011;22847;42.654;23.370;2023-05-31T07:27:15;10.75;;;6.43;;
36931;SDS011;22847;42.654;23.370;2023-05-31T07:29:41;9.30;;;6.32;;
36931;SDS011;22847;42.654;23.370;2023-05-31T07:32:06;10.18;;;6.00;;
36931;SDS011;22847;42.654;23.370;2023-05-31T07:34:32;8.48;;;6.03;;
36931;SDS011;22847;42.654;23.370;2023-05-31T07:36:57;9.40;;;6.47;;
36931;SDS011;22847;42.654;23.370;2023-05-31T07:39:22;11.05;;;6.60;;
36931;SDS011;22847;42.654;23.370;2023-05-31T07:41:48;12.82;;;6.43;;
36931;SDS011;22847;42.654;23.370;2023-05-31T07:44:14;13.93;;;6.47;;
36931;SDS011;22847;42.654;23.370;2023-05-31T07:46:41;9.07;;;6.15;;
36931;SDS011;22847;42.654;23.370;2023-05-31T07:49:07;10.70;;;6.45;;
36931;SDS011;22847;42.654;23.370;2023-05-31T07:51:33;9.95;;;6.05;;
36931;SDS011;22847;42.654;23.370;2023-05-31T07:53:58;9.80;;;5.75;;
36931;SDS011;22847;42.654;23.370;2023-05-31T07:56:24;7.47;;;5.88;;
36931;SDS011;22847;42.654;23.370;2023-05-31T07:58:50;8.27;;;5.55;;
36931;SDS011;22847;42.654;23.370;2023-05-31T08:01:15;9.95;;;6.03;;
36931;SDS011;22847;42.654;23.370;2023-05-31T08:03:41;12.57;;;6.55;;
36931;SDS011;22847;42.654;23.370;2023-05-31T08:06:07;14.18;;;5.75;;
36931;SDS011;22847;42.654;23.370;2023-05-31T08:08:32;10.65;;;6.25;;
36931;SDS011;22847;42.654;23.370;2023-05-31T08:10:59;8.55;;;6.07;;
36931;SDS011;22847;42.654;23.370;2023-05-31T08:13:25;11.70;;;6.80;;
36931;SDS011;22847;42.654;23.370;2023-05-31T08:15:51;9.82;;;5.70;;
36931;SDS011;22847;42.654;23.370;2023-05-31T08:18:17;11.32;;;6.03;;
36931;SDS011;22847;42.654;23.370;2023-05-31T08:20:43;15.88;;;6.43;;
36931;SDS011;22847;42.654;23.370;2023-05-31T08:23:09;12.25;;;5.90;;
36931;SDS011;22847;42.654;23.370;2023-05-31T08:25:41;7.75;;;5.60;;
36931;SDS011;22847;42.654;23.370;2023-05-31T08:28:07;10.85;;;6.28;;
36931;SDS011;22847;42.654;23.370;2023-05-31T08:30:32;9.38;;;6.20;;
36931;SDS011;22847;42.654;23.370;2023-05-31T08:32:58;14.52;;;5.53;;
36931;SDS011;22847;42.654;23.370;2023-05-31T08:35:23;10.55;;;5.43;;
36931;SDS011;22847;42.654;23.370;2023-05-31T08:37:49;7.95;;;5.30;;
36931;SDS011;22847;42.654;23.370;2023-05-31T08:40:14;10.30;;;5.43;;
36931;SDS011;22847;42.654;23.370;2023-05-31T08:42:42;11.43;;;6.18;;
36931;SDS011;22847;42.654;23.370;2023-05-31T08:45:12;10.20;;;5.47;;
36931;SDS011;22847;42.654;23.370;2023-05-31T08:47:44;10.48;;;5.63;;
36931;SDS011;22847;42.654;23.370;2023-05-31T08:50:15;8.45;;;5.28;;
36931;SDS011;22847;42.654;23.370;2023-05-31T08:52:42;7.65;;;5.65;;
36931;SDS011;22847;42.654;23.370;2023-05-31T08:55:10;8.93;;;5.93;;
36931;SDS011;22847;42.654;23.370;2023-05-31T08:57:37;10.35;;;6.10;;
36931;SDS011;22847;42.654;23.370;2023-05-31T09:00:03;8.82;;;5.68;;
36931;SDS011;22847;42.654;23.370;2023-05-31T09:02:36;11.07;;;5.60;;
36931;SDS011;22847;42.654;23.370;2023-05-31T09:05:02;9.75;;;5.70;;
36931;SDS011;22847;42.654;23.370;2023-05-31T09:07:29;12.30;;;6.38;;
36931;SDS011;22847;42.654;23.370;2023-05-31T09:09:54;7.35;;;5.93;;
36931;SDS011;22847;42.654;23.370;2023-05-31T09:12:20;9.43;;;6.20;;
36931;SDS011;22847;42.654;23.370;2023-05-31T09:14:46;10.00;;;5.40;;
36931;SDS011;22847;42.654;23.370;2023-05-31T09:17:12;11.52;;;6.95;;
36931;SDS011;22847;42.654;23.370;2023-05-31T09:19:41;10.40;;;6.10;;
36931;SDS011;22847;42.654;23.370;2023-05-31T09:22:15;9.60;;;5.95;;
36931;SDS011;22847;42.654;23.370;2023-05-31T09:24:48;9.52;;;6.50;;
36931;SDS011;22847;42.654;23.370;2023-05-31T09:27:26;9.35;;;6.50;;
36931;SDS011;22847;42.654;23.370;2023-05-31T09:29:58;10.05;;;6.40;;
36931;SDS011;22847;42.654;23.370;2023-05-31T09:32:23;9.88;;;6.30;;
36931;SDS011;22847;42.654;23.370;2023-05-31T09:34:49;12.13;;;7.07;;
36931;SDS011;22847;42.654;23.370;2023-05-31T09:37:20;9.98;;;7.15;;
36931;SDS011;22847;42.654;23.370;2023-05-31T09:39:56;15.38;;;6.38;;
36931;SDS011;22847;42.654;23.370;2023-05-31T09:42:21;11.57;;;6.70;;
36931;SDS011;22847;42.654;23.370;2023-05-31T09:44:49;14.45;;;8.40;;
36931;SDS011;22847;42.654;23.370;2023-05-31T09:47:15;11.95;;;8.02;;
36931;SDS011;22847;42.654;23.370;2023-05-31T09:49:43;15.48;;;6.65;;
36931;SDS011;22847;42.654;23.370;2023-05-31T09:52:12;11.63;;;7.30;;
36931;SDS011;22847;42.654;23.370;2023-05-31T09:54:38;13.70;;;6.57;;
36931;SDS011;22847;42.654;23.370;2023-05-31T09:57:04;10.43;;;6.60;;
36931;SDS011;22847;42.654;23.370;2023-05-31T09:59:33;9.23;;;6.15;;
36931;SDS011;22847;42.654;23.370;2023-05-31T10:01:59;9.35;;;6.85;;
36931;SDS011;22847;42.654;23.370;2023-05-31T10:04:26;12.10;;;6.82;;
36931;SDS011;22847;42.654;23.370;2023-05-31T10:06:53;11.43;;;7.15;;
36931;SDS011;22847;42.654;23.370;2023-05-31T10:09:18;13.23;;;7.50;;
36931;SDS011;22847;42.654;23.370;2023-05-31T10:11:48;12.48;;;7.57;;
36931;SDS011;22847;42.654;23.370;2023-05-31T10:14:24;10.02;;;7.22;;
36931;SDS011;22847;42.654;23.370;2023-05-31T10:19:24;12.20;;;6.38;;
36931;SDS011;22847;42.654;23.370;2023-05-31T10:21:58;12.90;;;6.30;;
36931;SDS011;22847;42.654;23.370;2023-05-31T10:24:26;6.28;;;4.70;;
36931;SDS011;22847;42.654;23.370;2023-05-31T10:29:51;8.43;;;5.05;;
36931;SDS011;22847;42.654;23.370;2023-05-31T10:32:24;10.80;;;5.22;;
36931;SDS011;22847;42.654;23.370;2023-05-31T10:34:51;14.20;;;6.10;;
36931;SDS011;22847;42.654;23.370;2023-05-31T10:37:18;15.30;;;5.22;;
36931;SDS011;22847;42.654;23.370;2023-05-31T10:39:47;8.80;;;4.43;;
36931;SDS011;22847;42.654;23.370;2023-05-31T10:45:40;7.25;;;4.32;;
36931;SDS011;22847;42.654;23.370;2023-05-31T10:48:15;10.10;;;5.25;;
36931;SDS011;22847;42.654;23.370;2023-05-31T10:51:18;6.60;;;4.88;;
36931;SDS011;22847;42.654;23.370;2023-05-31T10:53:37;6.97;;;4.88;;
36931;SDS011;22847;42.654;23.370;2023-05-31T10:56:05;8.38;;;5.20;;
36931;SDS011;22847;42.654;23.370;2023-05-31T10:58:35;7.10;;;4.68;;
36931;SDS011;22847;42.654;23.370;2023-05-31T11:01:11;10.18;;;5.13;;
36931;SDS011;22847;42.654;23.370;2023-05-31T11:06:19;7.05;;;5.15;;
36931;SDS011;22847;42.654;23.370;2023-05-31T11:08:58;9.48;;;5.18;;
36931;SDS011;22847;42.654;23.370;2023-05-31T11:13:59;7.07;;;4.93;;
36931;SDS011;22847;42.654;23.370;2023-05-31T11:16:31;8.10;;;5.05;;
36931;SDS011;22847;42.654;23.370;2023-05-31T11:19:02;7.13;;;5.07;;
36931;SDS011;22847;42.654;23.370;2023-05-31T11:21:47;12.30;;;5.30;;
36931;SDS011;22847;42.654;23.370;2023-05-31T11:27:16;9.90;;;4.93;;
36931;SDS011;22847;42.654;23.370;2023-05-31T11:32:12;9.52;;;5.30;;
36931;SDS011;22847;42.654;23.370;2023-05-31T11:34:54;11.13;;;5.25;;
36931;SDS011;22847;42.654;23.370;2023-05-31T11:37:31;11.45;;;4.10;;
36931;SDS011;22847;42.654;23.370;2023-05-31T11:40:07;7.75;;;4.47;;
36931;SDS011;22847;42.654;23.370;2023-05-31T11:42:37;16.25;;;4.85;;
36931;SDS011;22847;42.654;23.370;2023-05-31T11:47:37;9.25;;;4.13;;
36931;SDS011;22847;42.654;23.370;2023-05-31T11:52:43;14.45;;;5.20;;
36931;SDS011;22847;42.654;23.370;2023-05-31T11:55:09;15.18;;;5.10;;
36931;SDS011;22847;42.654;23.370;2023-05-31T11:57:54;10.10;;;5.10;;
36931;SDS011;22847;42.654;23.370;2023-05-31T12:00:21;14.20;;;6.28;;
36931;SDS011;22847;42.654;23.370;2023-05-31T12:02:56;15.38;;;5.72;;
36931;SDS011;22847;42.654;23.370;2023-05-31T12:05:22;14.82;;;6.13;;
36931;SDS011;22847;42.654;23.370;2023-05-31T12:07:48;18.70;;;6.50;;
36931;SDS011;22847;42.654;23.370;2023-05-31T12:10:18;13.38;;;6.28;;
36931;SDS011;22847;42.654;23.370;2023-05-31T12:12:44;16.63;;;6.45;;
36931;SDS011;22847;42.654;23.370;2023-05-31T12:15:11;13.52;;;6.88;;
36931;SDS011;22847;42.654;23.370;2023-05-31T12:17:37;17.10;;;7.10;;
36931;SDS011;22847;42.654;23.370;2023-05-31T12:20:03;14.27;;;6.85;;
36931;SDS011;22847;42.654;23.370;2023-05-31T12:22:33;12.05;;;7.28;;
36931;SDS011;22847;42.654;23.370;2023-05-31T12:24:58;36.17;;;21.58;;
36931;SDS011;22847;42.654;23.370;2023-05-31T12:27:25;14.93;;;8.13;;
36931;SDS011;22847;42.654;23.370;2023-05-31T12:29:56;15.50;;;6.85;;
36931;SDS011;22847;42.654;23.370;2023-05-31T12:32:22;19.05;;;6.50;;
36931;SDS011;22847;42.654;23.370;2023-05-31T12:34:52;14.07;;;6.20;;
36931;SDS011;22847;42.654;23.370;2023-05-31T12:37:18;17.92;;;9.32;;
36931;SDS011;22847;42.654;23.370;2023-05-31T12:39:45;12.57;;;7.10;;
36931;SDS011;22847;42.654;23.370;2023-05-31T12:42:10;14.57;;;6.80;;
36931;SDS011;22847;42.654;23.370;2023-05-31T12:44:36;14.50;;;7.28;;
36931;SDS011;22847;42.654;23.370;2023-05-31T12:47:04;11.88;;;7.20;;
36931;SDS011;22847;42.654;23.370;2023-05-31T12:49:32;17.33;;;10.70;;
36931;SDS011;22847;42.654;23.370;2023-05-31T12:54:31;14.98;;;9.52;;
36931;SDS011;22847;42.654;23.370;2023-05-31T12:57:01;13.60;;;6.78;;
36931;SDS011;22847;42.654;23.370;2023-05-31T12:59:28;11.50;;;6.63;;
36931;SDS011;22847;42.654;23.370;2023-05-31T13:01:54;15.13;;;7.30;;
36931;SDS011;22847;42.654;23.370;2023-05-31T13:04:20;15.18;;;6.53;;
36931;SDS011;22847;42.654;23.370;2023-05-31T13:06:46;22.80;;;7.20;;
36931;SDS011;22847;42.654;23.370;2023-05-31T13:09:12;13.45;;;7.18;;
36931;SDS011;22847;42.654;23.370;2023-05-31T13:11:37;14.40;;;6.22;;
36931;SDS011;22847;42.654;23.370;2023-05-31T13:14:04;25.77;;;6.18;;
36931;SDS011;22847;42.654;23.370;2023-05-31T13:16:33;14.15;;;6.00;;
36931;SDS011;22847;42.654;23.370;2023-05-31T13:18:59;19.25;;;6.05;;
36931;SDS011;22847;42.654;23.370;2023-05-31T13:21:26;10.90;;;6.70;;
36931;SDS011;22847;42.654;23.370;2023-05-31T13:23:52;12.43;;;6.45;;
36931;SDS011;22847;42.654;23.370;2023-05-31T13:26:18;16.30;;;6.38;;
36931;SDS011;22847;42.654;23.370;2023-05-31T13:28:44;12.45;;;5.57;;
36931;SDS011;22847;42.654;23.370;2023-05-31T13:31:10;20.35;;;7.00;;
36931;SDS011;22847;42.654;23.370;2023-05-31T13:33:35;12.45;;;6.00;;
36931;SDS011;22847;42.654;23.370;2023-05-31T13:36:01;11.35;;;5.05;;
36931;SDS011;22847;42.654;23.370;2023-05-31T13:38:26;12.73;;;6.60;;
36931;SDS011;22847;42.654;23.370;2023-05-31T13:40:52;10.00;;;5.25;;
36931;SDS011;22847;42.654;23.370;2023-05-31T13:43:18;9.60;;;4.95;;
36931;SDS011;22847;42.654;23.370;2023-05-31T13:45:44;7.22;;;4.75;;
36931;SDS011;22847;42.654;23.370;2023-05-31T13:48:10;14.93;;;5.40;;
36931;SDS011;22847;42.654;23.370;2023-05-31T13:50:35;13.77;;;6.30;;
36931;SDS011;22847;42.654;23.370;2023-05-31T13:53:01;11.43;;;5.32;;
36931;SDS011;22847;42.654;23.370;2023-05-31T13:55:27;11.73;;;5.72;;
36931;SDS011;22847;42.654;23.370;2023-05-31T13:57:52;18.75;;;6.07;;
36931;SDS011;22847;42.654;23.370;2023-05-31T14:00:17;15.90;;;5.10;;
36931;SDS011;22847;42.654;23.370;2023-05-31T14:02:44;12.48;;;6.20;;
36931;SDS011;22847;42.654;23.370;2023-05-31T14:05:09;11.10;;;5.32;;
36931;SDS011;22847;42.654;23.370;2023-05-31T14:07:35;12.45;;;6.75;;
36931;SDS011;22847;42.654;23.370;2023-05-31T14:10:01;14.65;;;8.68;;
36931;SDS011;22847;42.654;23.370;2023-05-31T14:12:28;11.02;;;6.60;;
36931;SDS011;22847;42.654;23.370;2023-05-31T14:14:54;15.90;;;7.05;;
36931;SDS011;22847;42.654;23.370;2023-05-31T14:17:20;17.15;;;6.10;;
36931;SDS011;22847;42.654;23.370;2023-05-31T14:19:45;14.52;;;6.15;;
36931;SDS011;22847;42.654;23.370;2023-05-31T14:22:11;14.00;;;5.00;;
36931;SDS011;22847;42.654;23.370;2023-05-31T14:24:36;10.65;;;5.88;;
36931;SDS011;22847;42.654;23.370;2023-05-31T14:27:02;11.68;;;5.75;;
36931;SDS011;22847;42.654;23.370;2023-05-31T14:29:27;10.73;;;5.78;;
36931;SDS011;22847;42.654;23.370;2023-05-31T14:31:53;9.50;;;5.95;;
36931;SDS011;22847;42.654;23.370;2023-05-31T14:34:18;12.27;;;6.80;;
36931;SDS011;22847;42.654;23.370;2023-05-31T14:36:43;18.00;;;6.43;;
36931;SDS011;22847;42.654;23.370;2023-05-31T14:39:09;14.30;;;6.72;;
36931;SDS011;22847;42.654;23.370;2023-05-31T14:41:35;21.85;;;6.78;;
36931;SDS011;22847;42.654;23.370;2023-05-31T14:44:00;17.48;;;6.13;;
36931;SDS011;22847;42.654;23.370;2023-05-31T14:46:26;13.45;;;5.88;;
36931;SDS011;22847;42.654;23.370;2023-05-31T14:48:52;12.68;;;6.50;;
36931;SDS011;22847;42.654;23.370;2023-05-31T14:51:18;12.38;;;6.20;;
36931;SDS011;22847;42.654;23.370;2023-05-31T14:53:44;17.85;;;8.07;;
36931;SDS011;22847;42.654;23.370;2023-05-31T14:56:10;15.52;;;7.45;;
36931;SDS011;22847;42.654;23.370;2023-05-31T14:58:35;25.67;;;12.43;;